createdAt,value
2019-05-15T00:00:21.165Z,99141.33
2019-05-15T00:02:49.644Z,99147.41
2019-05-15T00:05:18.844Z,99152.45
2019-05-15T00:07:48.442Z,99159.31
2019-05-15T00:10:18.114Z,99164.02
2019-05-15T00:12:48.617Z,99158.49
2019-05-15T00:15:18.246Z,99151.57
2019-05-15T00:17:48.494Z,99149.91
2019-05-15T00:20:20.056Z,99149.63
2019-05-15T00:22:48.442Z,99152.70
2019-05-15T00:25:18.858Z,99153.22
2019-05-15T00:27:49.104Z,99161.53
2019-05-15T00:30:18.490Z,99156.55
2019-05-15T00:32:48.718Z,99146.13
2019-05-15T00:35:18.441Z,99145.88
2019-05-15T00:37:49.244Z,99140.88
2019-05-15T00:40:18.528Z,99137.66
2019-05-15T00:42:48.799Z,99133.11
2019-05-15T00:45:18.648Z,99128.97
2019-05-15T00:47:48.656Z,99133.04
2019-05-15T00:50:18.234Z,99135.91
2019-05-15T00:52:48.492Z,99129.31
2019-05-15T00:55:19.050Z,99129.75
2019-05-15T00:57:48.544Z,99131.52
2019-05-15T01:00:41.315Z,99125.73
2019-05-15T01:03:10.110Z,99127.40
2019-05-15T01:05:38.923Z,99131.61
2019-05-15T01:08:08.187Z,99142.70
2019-05-15T01:10:38.595Z,99130.27
2019-05-15T01:13:08.344Z,99122.58
2019-05-15T01:15:38.679Z,99120.62
2019-05-15T01:18:09.325Z,99126.99
2019-05-15T01:20:39.142Z,99123.05
2019-05-15T01:23:08.910Z,99120.72
2019-05-15T01:25:39.010Z,99128.62
2019-05-15T01:28:09.479Z,99126.16
2019-05-15T01:30:39.295Z,99126.99
2019-05-15T01:33:08.475Z,99127.97
2019-05-15T01:35:38.422Z,99125.38
2019-05-15T01:38:08.119Z,99113.36
2019-05-15T01:40:38.464Z,99109.14
2019-05-15T01:43:09.235Z,99103.94
2019-05-15T01:45:39.433Z,99109.14
2019-05-15T01:48:08.353Z,99112.13
2019-05-15T01:50:38.887Z,99117.43
2019-05-15T01:53:08.272Z,99125.73
2019-05-15T01:55:39.291Z,99125.43
2019-05-15T01:58:33.348Z,99124.19
2019-05-15T02:01:01.962Z,99127.73
2019-05-15T02:03:31.919Z,99122.14
2019-05-15T02:06:00.595Z,99112.34
2019-05-15T02:08:29.113Z,99112.30
2019-05-15T02:10:58.819Z,99118.35
2019-05-15T02:13:28.252Z,99121.72
2019-05-15T02:15:58.915Z,99111.52
2019-05-15T02:18:28.531Z,99100.05
2019-05-15T02:20:58.715Z,99092.55
2019-05-15T02:23:28.038Z,99087.64
2019-05-15T02:25:58.749Z,99097.06
2019-05-15T02:28:28.930Z,99103.04
2019-05-15T02:30:58.753Z,99107.52
2019-05-15T02:33:30.078Z,99107.34
2019-05-15T02:35:59.471Z,99106.31
2019-05-15T02:38:29.686Z,99110.54
2019-05-15T02:40:59.317Z,99110.21
2019-05-15T02:43:29.799Z,99113.27
2019-05-15T02:46:00.390Z,99109.02
2019-05-15T02:48:29.154Z,99106.16
2019-05-15T02:50:58.942Z,99108.84
2019-05-15T02:53:29.947Z,99118.91
2019-05-15T02:56:00.190Z,99120.66
2019-05-15T02:58:29.408Z,99124.97
2019-05-15T03:00:59.364Z,99121.81
2019-05-15T03:03:29.515Z,99118.31
2019-05-15T03:06:00.235Z,99112.00
2019-05-15T03:08:29.851Z,99099.45
2019-05-15T03:10:59.423Z,99094.25
2019-05-15T03:13:29.962Z,99097.75
2019-05-15T03:15:59.788Z,99095.27
2019-05-15T03:18:29.137Z,99093.25
2019-05-15T03:21:00.385Z,99100.84
2019-05-15T03:23:29.598Z,99109.77
2019-05-15T03:26:02.935Z,99117.32
2019-05-15T03:28:29.570Z,99117.19
2019-05-15T03:31:32.593Z,99122.14
2019-05-15T03:33:35.840Z,99127.20
2019-05-15T03:36:02.562Z,99131.30
2019-05-15T03:38:30.284Z,99138.43
2019-05-15T03:40:59.779Z,99133.61
2019-05-15T03:43:29.180Z,99119.14
2019-05-15T03:46:01.243Z,99092.44
2019-05-15T03:48:29.002Z,99117.63
2019-05-15T03:50:59.760Z,99135.47
2019-05-15T03:53:29.941Z,99136.03
2019-05-15T03:55:59.165Z,99135.49
2019-05-15T03:58:28.756Z,99136.19
2019-05-15T04:01:00.282Z,99133.54
2019-05-15T04:03:29.912Z,99136.31
2019-05-15T04:06:00.453Z,99130.52
2019-05-15T04:08:29.897Z,99137.63
2019-05-15T04:10:59.702Z,99140.28
2019-05-15T04:13:30.100Z,99135.36
2019-05-15T04:15:59.565Z,99120.20
2019-05-15T04:18:29.113Z,99130.95
2019-05-15T04:21:00.120Z,99126.89
2019-05-15T04:23:30.128Z,99113.50
2019-05-15T04:25:59.076Z,99123.61
2019-05-15T04:28:30.891Z,99128.55
2019-05-15T04:30:59.843Z,99128.31
2019-05-15T04:33:29.519Z,99122.04
2019-05-15T04:35:58.926Z,99117.69
2019-05-15T04:38:29.359Z,99108.17
2019-05-15T04:40:59.119Z,99101.72
2019-05-15T04:43:29.420Z,99111.22
2019-05-15T04:46:02.804Z,99111.73
2019-05-15T04:48:29.231Z,99110.01
2019-05-15T04:50:58.827Z,99107.22
2019-05-15T04:53:29.699Z,99114.59
2019-05-15T04:55:59.764Z,99114.01
2019-05-15T04:58:29.680Z,99110.64
2019-05-15T05:00:59.934Z,99123.09
2019-05-15T05:03:29.534Z,99134.70
2019-05-15T05:05:59.200Z,99138.70
2019-05-15T05:08:29.175Z,99138.70
2019-05-15T05:10:59.217Z,99132.15
2019-05-15T05:13:28.871Z,99130.94
2019-05-15T05:15:58.656Z,99142.27
2019-05-15T05:18:29.731Z,99145.70
2019-05-15T05:20:58.004Z,99148.48
2019-05-15T05:23:28.334Z,99150.98
2019-05-15T05:25:58.108Z,99143.34
2019-05-15T05:28:28.930Z,99149.11
2019-05-15T05:30:58.813Z,99151.28
2019-05-15T05:33:28.711Z,99151.07
2019-05-15T05:35:58.353Z,99151.31
2019-05-15T05:38:28.198Z,99158.91
2019-05-15T05:40:58.738Z,99160.21
2019-05-15T05:43:29.807Z,99163.59
2019-05-15T05:45:58.293Z,99157.11
2019-05-15T05:48:29.071Z,99162.38
2019-05-15T05:50:58.417Z,99157.70
2019-05-15T05:53:28.668Z,99157.69
2019-05-15T05:55:58.016Z,99166.12
2019-05-15T05:58:29.467Z,99162.53
2019-05-15T06:00:58.562Z,99153.09
2019-05-15T06:03:28.180Z,99172.88
2019-05-15T06:05:59.058Z,99176.96
2019-05-15T06:08:28.231Z,99171.55
2019-05-15T06:10:58.538Z,99160.46
2019-05-15T06:13:29.108Z,99168.53
2019-05-15T06:15:59.067Z,99176.24
2019-05-15T06:18:28.263Z,99183.02
2019-05-15T06:20:58.616Z,99193.85
2019-05-15T06:23:33.701Z,99174.92
2019-05-15T06:25:59.211Z,99175.05
2019-05-15T06:28:28.933Z,99178.41
2019-05-15T06:31:00.780Z,99173.61
2019-05-15T06:33:28.009Z,99180.23
2019-05-15T06:35:59.066Z,99183.20
2019-05-15T06:38:31.023Z,99175.11
2019-05-15T06:40:58.253Z,99181.88
2019-05-15T06:43:28.031Z,99173.70
2019-05-15T06:45:58.484Z,99167.89
2019-05-15T06:48:28.911Z,99162.59
2019-05-15T06:50:58.050Z,99157.36
2019-05-15T06:53:28.848Z,99151.62
2019-05-15T06:55:58.480Z,99150.39
2019-05-15T06:58:29.009Z,99162.10
2019-05-15T07:00:59.258Z,99151.86
2019-05-15T07:03:29.376Z,99152.10
2019-05-15T07:05:59.758Z,99155.42
2019-05-15T07:08:28.890Z,99151.06
2019-05-15T07:10:57.946Z,99150.20
2019-05-15T07:13:28.858Z,99153.80
2019-05-15T07:15:58.493Z,99169.42
2019-05-15T07:18:28.342Z,99177.69
2019-05-15T07:20:58.064Z,99173.55
2019-05-15T07:23:30.361Z,99180.03
2019-05-15T07:25:58.716Z,99182.06
2019-05-15T07:28:28.847Z,99176.58
2019-05-15T07:30:58.373Z,99170.87
2019-05-15T07:33:38.712Z,99166.16
2019-05-15T07:35:59.150Z,99159.17
2019-05-15T07:38:28.279Z,99169.89
2019-05-15T07:41:03.391Z,99175.72
2019-05-15T07:43:28.153Z,99195.89
2019-05-15T07:45:59.026Z,99213.53
2019-05-15T07:48:29.062Z,99223.97
2019-05-15T07:50:59.497Z,99240.66
2019-05-15T07:53:28.854Z,99216.37
2019-05-15T07:56:01.138Z,99199.03
2019-05-15T07:58:28.301Z,99186.65
2019-05-15T08:00:59.062Z,99184.67
2019-05-15T08:03:29.287Z,99189.34
2019-05-15T08:06:02.088Z,99187.88
2019-05-15T08:08:29.082Z,99193.39
2019-05-15T08:10:58.387Z,99198.38
2019-05-15T08:13:28.958Z,99193.09
2019-05-15T08:15:58.012Z,99178.16
2019-05-15T08:18:28.642Z,99170.73
2019-05-15T08:20:58.554Z,99176.41
2019-05-15T08:23:28.407Z,99183.81
2019-05-15T08:25:57.920Z,99185.70
2019-05-15T08:28:28.668Z,99195.86
2019-05-15T08:30:58.373Z,99207.93
2019-05-15T08:33:28.029Z,99213.54
2019-05-15T08:35:58.783Z,99218.99
2019-05-15T08:38:28.775Z,99226.20
2019-05-15T08:40:59.283Z,99237.59
2019-05-15T08:43:29.101Z,99252.23
2019-05-15T08:45:58.775Z,99269.13
2019-05-15T08:48:27.813Z,99271.30
2019-05-15T08:50:57.944Z,99289.34
2019-05-15T08:53:28.551Z,99305.28
2019-05-15T08:55:58.774Z,99311.17
2019-05-15T08:58:29.141Z,99306.52
2019-05-15T09:00:58.642Z,99290.48
2019-05-15T09:03:28.654Z,99284.80
2019-05-15T09:05:59.022Z,99258.02
2019-05-15T09:08:29.376Z,99245.48
2019-05-15T09:10:58.742Z,99222.14
2019-05-15T09:13:29.275Z,99213.14
2019-05-15T09:15:58.890Z,99200.44
2019-05-15T09:18:28.380Z,99193.14
2019-05-15T09:20:59.371Z,99181.58
2019-05-15T09:23:28.939Z,99172.33
2019-05-15T09:25:58.058Z,99156.86
2019-05-15T09:28:29.287Z,99174.00
2019-05-15T09:30:59.042Z,99169.70
2019-05-15T09:33:28.613Z,99168.08
2019-05-15T09:35:58.403Z,99168.82
2019-05-15T09:38:28.915Z,99177.07
2019-05-15T09:40:58.511Z,99179.33
2019-05-15T09:43:28.495Z,99169.66
2019-05-15T09:45:58.353Z,99164.75
2019-05-15T09:48:28.646Z,99158.47
2019-05-15T09:50:58.781Z,99151.19
2019-05-15T09:53:28.562Z,99145.41
2019-05-15T09:55:59.755Z,99140.53
2019-05-15T09:58:30.051Z,99140.89
2019-05-15T10:00:58.183Z,99155.94
2019-05-15T10:03:28.175Z,99154.78
2019-05-15T10:05:57.003Z,99150.27
2019-05-15T10:08:25.595Z,99137.23
2019-05-15T10:10:54.048Z,99137.59
2019-05-15T10:13:22.538Z,99143.55
2019-05-15T10:15:51.362Z,99145.00
2019-05-15T10:18:19.991Z,99156.59
2019-05-15T10:20:48.686Z,99160.03
2019-05-15T10:23:19.514Z,99144.98
2019-05-15T10:25:48.540Z,99120.31
2019-05-15T10:28:18.737Z,99119.95
2019-05-15T10:30:49.368Z,99135.59
2019-05-15T10:33:19.655Z,99124.24
2019-05-15T10:35:48.737Z,99114.77
2019-05-15T10:38:19.248Z,99100.75
2019-05-15T10:41:00.242Z,99097.66
2019-05-15T10:43:20.723Z,99097.59
2019-05-15T10:45:50.061Z,99101.38
2019-05-15T10:48:19.270Z,99101.28
2019-05-15T10:50:47.994Z,99112.58
2019-05-15T10:53:18.842Z,99115.53
2019-05-15T10:55:49.555Z,99097.47
2019-05-15T10:58:21.759Z,99102.31
2019-05-15T11:00:49.406Z,99105.19
2019-05-15T11:03:19.974Z,99117.13
2019-05-15T11:05:49.132Z,99117.37
2019-05-15T11:08:18.835Z,99102.39
2019-05-15T11:10:49.494Z,99106.59
2019-05-15T11:13:18.953Z,99102.84
2019-05-15T11:15:49.101Z,99101.64
2019-05-15T11:18:18.241Z,99093.87
2019-05-15T11:20:48.700Z,99096.22
2019-05-15T11:23:19.886Z,99093.55
2019-05-15T11:25:48.785Z,99090.20
2019-05-15T11:28:17.590Z,99087.69
2019-05-15T11:30:48.874Z,99095.14
2019-05-15T11:33:18.842Z,99104.44
2019-05-15T11:35:58.230Z,99106.08
2019-05-15T11:38:19.434Z,99110.98
2019-05-15T11:40:48.203Z,99103.66
2019-05-15T11:43:59.021Z,99107.22
2019-05-15T11:46:29.136Z,99110.61
2019-05-15T11:52:49.526Z,99094.44
2019-05-15T11:55:18.252Z,99097.59
2019-05-15T11:57:50.920Z,99094.19
2019-05-15T12:00:26.576Z,99089.98
2019-05-15T12:02:48.394Z,99084.36
2019-05-15T12:05:18.236Z,99076.84
2019-05-15T12:07:47.796Z,99077.92
2019-05-15T12:10:18.466Z,99083.42
2019-05-15T12:12:49.729Z,99089.24
2019-05-15T12:15:19.078Z,99087.20
2019-05-15T12:17:48.616Z,99073.59
2019-05-15T12:20:19.278Z,99067.87
2019-05-15T12:22:48.712Z,99061.88
2019-05-15T12:25:17.743Z,99060.87
2019-05-15T12:27:49.067Z,99051.04
2019-05-15T12:30:19.965Z,99045.25
2019-05-15T12:32:49.340Z,99045.18
2019-05-15T12:35:20.495Z,99049.87
2019-05-15T12:37:48.739Z,99052.30
2019-05-15T13:00:24.623Z,99035.19
2019-05-15T13:02:53.105Z,99033.06
2019-05-15T13:05:21.707Z,99031.18
2019-05-15T13:07:50.336Z,99038.31
2019-05-15T13:10:19.130Z,99038.38
2019-05-15T13:12:57.269Z,99034.20
2019-05-15T13:15:19.017Z,99028.70
2019-05-15T13:17:52.955Z,99035.54
2019-05-15T13:20:18.632Z,99033.91
2019-05-15T13:25:18.677Z,99039.84
2019-05-15T13:27:48.834Z,99036.41
2019-05-15T13:30:18.482Z,99033.93
2019-05-15T13:32:49.745Z,99033.14
2019-05-15T13:35:18.403Z,99033.16
2019-05-15T13:37:49.449Z,99034.09
2019-05-15T13:40:18.910Z,99038.42
2019-05-15T13:42:48.574Z,99026.81
2019-05-15T13:45:18.389Z,99022.20
2019-05-15T13:47:47.007Z,99012.87
2019-05-15T13:50:15.706Z,99006.36
2019-05-15T13:52:44.838Z,99010.87
2019-05-15T13:55:13.557Z,99006.07
2019-05-15T13:57:42.113Z,99001.89
2019-05-15T14:00:11.485Z,99003.05
2019-05-15T14:02:40.279Z,99003.34
2019-05-15T14:05:09.854Z,98999.27
2019-05-15T14:07:48.945Z,98998.05
2019-05-15T14:10:10.153Z,99002.94
2019-05-15T14:12:38.667Z,98995.09
2019-05-15T14:15:09.161Z,98996.73
2019-05-15T14:17:37.814Z,99000.95
2019-05-15T14:20:09.139Z,99001.87
2019-05-15T14:22:39.035Z,98998.86
2019-05-15T14:25:08.837Z,99007.63
2019-05-15T14:27:39.694Z,98992.80
2019-05-15T14:30:09.540Z,99004.28
2019-05-15T14:32:39.279Z,99001.02
2019-05-15T14:35:09.315Z,98998.88
2019-05-15T14:37:38.038Z,99000.89
2019-05-15T14:40:08.894Z,99007.21
2019-05-15T14:42:39.494Z,99004.84
2019-05-15T14:45:09.815Z,99016.57
2019-05-15T14:47:39.129Z,99011.50
2019-05-15T14:50:10.163Z,99009.20
2019-05-15T14:52:38.961Z,99021.59
2019-05-15T14:55:09.861Z,99017.36
2019-05-15T14:57:39.140Z,99024.09
2019-05-15T15:00:10.091Z,99026.39
2019-05-15T15:02:39.258Z,99022.14
2019-05-15T15:05:09.009Z,99023.67
2019-05-15T15:07:38.171Z,99035.37
2019-05-15T15:10:08.157Z,99036.52
2019-05-15T15:12:39.521Z,99036.36
2019-05-15T15:15:10.019Z,99035.26
2019-05-15T15:17:38.925Z,99036.08
2019-05-15T15:20:08.529Z,99033.87
2019-05-15T15:22:39.445Z,99037.70
2019-05-15T15:25:09.518Z,99044.55
2019-05-15T15:27:39.063Z,99041.52
2019-05-15T15:30:09.156Z,99045.34
2019-05-15T15:32:38.325Z,99032.98
2019-05-15T15:35:08.543Z,99036.43
2019-05-15T15:37:38.182Z,99034.03
2019-05-15T15:40:08.269Z,99029.58
2019-05-15T15:42:39.384Z,99016.66
2019-05-15T15:45:10.459Z,99016.64
2019-05-15T15:47:39.254Z,99016.59
2019-05-15T15:50:09.556Z,99003.63
2019-05-15T15:52:38.799Z,99007.48
2019-05-15T15:55:09.296Z,99002.92
2019-05-15T15:57:39.885Z,99004.43
2019-05-15T16:00:09.781Z,99001.89
2019-05-15T16:02:41.094Z,99003.42
2019-05-15T16:05:09.427Z,99004.56
2019-05-15T16:07:38.221Z,99009.06
2019-05-15T16:10:08.417Z,99002.55
2019-05-15T16:12:38.719Z,98998.03
2019-05-15T16:15:09.046Z,98996.70
2019-05-15T16:17:38.488Z,98993.32
2019-05-15T16:20:09.641Z,98995.80
2019-05-15T16:22:38.608Z,99002.66
2019-05-15T16:25:09.766Z,99011.81
2019-05-15T16:27:38.782Z,99011.30
2019-05-15T16:30:08.487Z,99017.63
2019-05-15T16:32:38.819Z,99021.91
2019-05-15T16:35:09.973Z,99025.73
2019-05-15T16:37:39.194Z,99026.00
2019-05-15T16:40:08.702Z,99032.68
2019-05-15T16:42:38.584Z,99037.64
2019-05-15T16:45:09.303Z,99040.11
2019-05-15T16:47:38.767Z,99044.48
2019-05-15T16:50:08.930Z,99049.14
2019-05-15T16:52:38.746Z,99048.59
2019-05-15T16:55:09.758Z,99051.52
2019-05-15T16:57:39.111Z,99055.14
2019-05-15T17:00:10.231Z,99050.97
2019-05-15T17:02:39.583Z,99042.93
2019-05-15T17:05:09.025Z,99054.78
2019-05-15T17:07:38.763Z,99044.53
2019-05-15T17:10:08.755Z,99056.25
2019-05-15T17:12:38.687Z,99060.84
2019-05-15T17:15:08.614Z,99064.13
2019-05-15T17:17:38.644Z,99068.94
2019-05-15T17:20:09.709Z,99065.95
2019-05-15T17:22:38.882Z,99070.70
2019-05-15T17:25:09.341Z,99073.33
2019-05-15T17:27:38.299Z,99070.62
2019-05-15T17:30:09.298Z,99073.61
2019-05-15T17:32:38.998Z,99078.52
2019-05-15T17:35:10.060Z,99083.20
2019-05-15T17:37:39.049Z,99082.48
2019-05-15T17:40:08.270Z,99083.25
2019-05-15T17:42:38.985Z,99083.41
2019-05-15T17:45:09.359Z,99091.25
2019-05-15T17:47:39.426Z,99095.58
2019-05-15T17:50:10.022Z,99098.25
2019-05-15T17:52:39.045Z,99100.55
2019-05-15T17:55:07.871Z,99102.61
2019-05-15T17:57:38.638Z,99108.91
2019-05-15T18:00:11.614Z,99106.66
2019-05-15T18:02:38.623Z,99100.22
2019-05-15T18:05:07.845Z,99105.79
2019-05-15T18:07:38.856Z,99106.48
2019-05-15T18:10:08.406Z,99108.50
2019-05-15T18:12:38.865Z,99110.71
2019-05-15T18:15:08.976Z,99117.97
2019-05-15T18:17:39.145Z,99125.58
2019-05-15T18:20:10.402Z,99128.09
2019-05-15T18:22:39.321Z,99137.22
2019-05-15T18:25:09.108Z,99144.17
2019-05-15T18:27:38.832Z,99151.09
2019-05-15T18:30:09.194Z,99159.33
2019-05-15T18:32:39.060Z,99154.02
2019-05-15T18:35:08.757Z,99153.16
2019-05-15T18:37:39.458Z,99155.55
2019-05-15T18:40:10.032Z,99155.75
2019-05-15T18:42:39.335Z,99151.12
2019-05-15T18:45:08.927Z,99142.78
2019-05-15T18:47:39.043Z,99145.09
2019-05-15T18:50:13.167Z,99158.63
2019-05-15T18:52:39.185Z,99159.52
2019-05-15T18:55:08.398Z,99165.23
2019-05-15T18:57:38.569Z,99166.44
2019-05-15T19:00:09.184Z,99165.31
2019-05-15T19:02:39.279Z,99163.28
2019-05-15T19:05:08.652Z,99156.84
2019-05-15T19:07:38.370Z,99152.84
2019-05-15T19:10:08.193Z,99149.17
2019-05-15T19:12:37.910Z,99148.41
2019-05-15T19:15:09.233Z,99148.97
2019-05-15T19:17:38.848Z,99147.16
2019-05-15T19:20:08.633Z,99146.67
2019-05-15T19:22:40.578Z,99148.48
2019-05-15T19:25:10.493Z,99153.12
2019-05-15T19:27:39.588Z,99159.36
2019-05-15T19:30:08.871Z,99157.17
2019-05-15T19:32:38.769Z,99153.81
2019-05-15T19:35:08.193Z,99161.59
2019-05-15T19:37:38.614Z,99142.04
2019-05-15T19:40:08.025Z,99133.27
2019-05-15T19:42:38.314Z,99130.69
2019-05-15T19:45:08.586Z,99125.84
2019-05-15T19:47:38.786Z,99110.44
2019-05-15T19:50:09.788Z,99104.17
2019-05-15T19:52:38.792Z,99111.47
2019-05-15T19:55:08.843Z,99115.03
2019-05-15T19:57:39.024Z,99127.39
2019-05-15T20:00:08.754Z,99130.91
2019-05-15T20:02:38.164Z,99139.09
2019-05-15T20:05:09.158Z,99137.45
2019-05-15T20:07:39.006Z,99134.53
2019-05-15T20:10:09.796Z,99143.64
2019-05-15T20:12:39.284Z,99149.02
2019-05-15T20:15:09.474Z,99153.95
2019-05-15T20:17:38.985Z,99154.43
2019-05-15T20:20:08.907Z,99151.12
2019-05-15T20:22:40.235Z,99153.00
2019-05-15T20:25:10.220Z,99153.02
2019-05-15T20:27:41.842Z,99140.48
2019-05-15T20:30:11.409Z,99133.34
2019-05-15T20:32:40.133Z,99132.84
2019-05-15T20:35:08.954Z,99130.36
2019-05-15T20:37:40.428Z,99129.77
2019-05-15T20:40:09.903Z,99130.84
2019-05-15T20:42:38.846Z,99128.69
2019-05-15T20:45:11.666Z,99130.80
2019-05-15T20:47:38.858Z,99135.13
2019-05-15T20:50:08.852Z,99146.63
2019-05-15T20:52:39.477Z,99160.64
2019-05-15T20:55:08.465Z,99171.54
2019-05-15T20:57:40.050Z,99167.14
2019-05-15T21:00:10.693Z,99156.13
2019-05-15T21:02:39.191Z,99157.65
2019-05-15T21:05:08.688Z,99150.59
2019-05-15T21:07:39.955Z,99151.08
2019-05-15T21:10:09.154Z,99147.87
2019-05-15T21:12:41.028Z,99148.34
2019-05-15T21:15:09.456Z,99147.49
2019-05-15T21:17:39.669Z,99152.19
2019-05-15T21:20:09.863Z,99153.37
2019-05-15T21:22:40.173Z,99155.80
2019-05-15T21:25:10.806Z,99151.52
2019-05-15T21:27:42.291Z,99147.20
2019-05-15T21:30:10.850Z,99144.28
2019-05-15T21:32:39.240Z,99138.81
2019-05-15T21:35:09.040Z,99141.55
2019-05-15T21:37:38.958Z,99141.44
2019-05-15T21:40:08.467Z,99136.56
2019-05-15T21:42:39.024Z,99134.64
2019-05-15T21:45:14.225Z,99142.88
2019-05-15T21:47:38.973Z,99141.98
2019-05-15T21:50:08.174Z,99141.51
2019-05-15T21:52:38.947Z,99144.28
2019-05-15T21:55:09.275Z,99139.70
2019-05-15T21:57:40.448Z,99152.31
2019-05-15T22:00:17.893Z,99160.84
2019-05-15T22:02:49.145Z,99168.64
2019-05-15T22:05:19.085Z,99172.69
2019-05-15T22:07:47.819Z,99183.22
2019-05-15T22:10:19.394Z,99182.94
2019-05-15T22:12:48.501Z,99193.25
2019-05-15T22:15:19.058Z,99211.13
2019-05-15T22:17:49.286Z,99224.31
2019-05-15T22:20:18.946Z,99232.23
2019-05-15T22:22:50.354Z,99230.91
2019-05-15T22:25:18.967Z,99237.44
2019-05-15T22:27:48.703Z,99235.91
2019-05-15T22:30:19.160Z,99232.14
2019-05-15T22:32:49.513Z,99234.72
2019-05-15T22:35:19.013Z,99234.49
2019-05-15T22:37:49.289Z,99237.20
2019-05-15T22:40:18.483Z,99238.84
2019-05-15T22:42:48.583Z,99228.61
2019-05-15T22:45:18.390Z,99226.48
2019-05-15T22:47:48.389Z,99218.79
2019-05-15T22:50:18.843Z,99185.25
2019-05-15T22:52:49.315Z,99175.14
2019-05-15T22:55:18.517Z,99179.08
2019-05-15T22:57:48.191Z,99178.73
2019-05-15T23:00:18.158Z,99186.23
2019-05-15T23:02:48.853Z,99189.35
2019-05-15T23:05:25.116Z,99187.41
2019-05-15T23:07:48.308Z,99185.00
2019-05-15T23:10:17.270Z,99177.80
2019-05-15T23:12:45.843Z,99177.05
2019-05-15T23:15:14.466Z,99152.97
2019-05-15T23:17:43.253Z,99153.17
2019-05-15T23:20:12.022Z,99137.25
2019-05-15T23:22:40.750Z,99143.30
2019-05-15T23:25:09.532Z,99149.31
2019-05-15T23:27:38.846Z,99124.22
2019-05-15T23:30:09.073Z,99112.05
2019-05-15T23:32:39.088Z,99111.41
2019-05-15T23:35:08.268Z,99124.42
2019-05-15T23:37:39.271Z,99121.83
2019-05-15T23:40:08.887Z,99135.05
2019-05-15T23:42:39.067Z,99123.13
2019-05-15T23:45:08.086Z,99119.30
2019-05-15T23:47:38.393Z,99116.30
2019-05-15T23:50:07.081Z,99115.31
2019-05-15T23:52:35.590Z,99114.74
2019-05-15T23:55:04.405Z,99128.48
2019-05-15T23:57:33.130Z,99116.02
